Killeen, TX (76547)

7:04 AM CDT on April 27, 2015 (GMT -0500)
Fort Hood Patton Park | | Change Station
CLOSE
Current Station
Personal Weather Station
Location: Fort Hood, TX
Elevation: 879 ft
Nearby Weather Stations

Elev 879 ft 31.12 °N, 97.74 °W | Updated 12 minutes ago

Mostly Cloudy
Mostly Cloudy
61.7 °F
Feels Like 61.7 °F
N
2.7
Wind Variable Wind from ESE

Today
High -- | Low -- °F
--% Chance of Precip.
Yesterday
High -- | Low -- °F
Precip. -- in
6:50 AM 8:07 PM
Waxing Gibbous, 64% visible
Pressure 29.62 in
Visibility 10.0 miles
Clouds Mostly Cloudy 11000 ft
Dew Point 58 °F
Humidity 89%
Rainfall 0.22 in
Snow Depth Not available.
UV 0 out of 12
Pollen 8.70 out of 12
Air Quality Not available.
Flu Activity Local Activity
METAR KHLR 271158Z AUTO 09007KT 10SM BKN110 16/15 A2965 RMK AO2 LTG DSNT NW SLP031 60026 70026 T01640154 10230 20164 53010

More Conditions Fewer Conditions

Pressure 29.62 in
Visibility 10.0 miles
Clouds Mostly Cloudy 11000 ft
Dew Point 58 °F
Humidity 89%
Rainfall 0.22 in
Snow Depth Not available.
UV 0 out of 12
Pollen 8.70 out of 12
Air Quality Not available.
Flu Activity Local Activity
METAR KHLR 271158Z AUTO 09007KT 10SM BKN110 16/15 A2965 RMK AO2 LTG DSNT NW SLP031 60026 70026 T01640154 10230 20164 53010

More Conditions Fewer Conditions

10-Day Weather Forecast

Almanac

Astronomy

Apr. 27, 2015 Rise Set
Actual Time
Civil Twilight
Nautical Twilight
Astronomical Twilight
Moon
Length of Visible Light
Length of Day
Tomorrow will be .
, % of the Moon is Illuminated

Today's Extremes

State Highs State Lows

Community

WunderPhotos

Upload Photos

1,817,284 photos uploaded!

WunderBlogs® & News

Nearby

Air Quality

  Air Quality AQ Index Pollutant
Not available.

Snow Depth

Station Depth Elevation

Earthquake Activity

City Distance Mag. Time & Date
Minimum magnitude displayed is 2.5.

Coastal Water Temperatures

Place Temperature

Stations

Nearby Weather Stations

Station Location Temp. Windchill Dew Point Humidity Wind Precip. Elev Updated Type